Time;durP1;ratioP1;P1;durP2;ratioP2;P2;SDS_P1;SDS_P2;PMS_P1;PMS_P2;Temp;Humidity;BMP_temperature;BMP_pressure;BME280_temperature;BME280_humidity;BME280_pressure;Samples;Min_cycle;Max_cycle;Signal;HPM_P1;HPM_P2
2022/08/12 00:43:57;;;;;;;1.77;1.67;;;24.10;39.20;;;;;;950751;149;27737;-73
2022/08/12 00:46:35;;;;;;;1.75;1.65;;;24.10;39.20;;;;;;952449;148;27335;-73
2022/08/12 00:49:00;;;;;;;2.12;1.72;;;24.20;39.20;;;;;;949740;149;28092;-73
2022/08/12 00:52:04;;;;;;;2.08;1.50;;;24.20;39.80;;;;;;947816;149;27321;-74
2022/08/12 00:53:54;;;;;;;2.25;1.52;;;24.30;39.30;;;;;;946568;149;27450;-74
2022/08/12 00:56:21;;;;;;;2.85;1.75;;;24.30;39.30;;;;;;950500;149;27457;-73
2022/08/12 00:58:49;;;;;;;2.10;1.40;;;24.30;39.20;;;;;;951516;148;27335;-73
2022/08/12 01:01:15;;;;;;;1.55;1.42;;;24.30;39.20;;;;;;950126;149;27454;-73
2022/08/12 01:11:55;;;;;;;2.60;1.32;;;24.20;39.10;;;;;;948009;149;27375;-73
2022/08/12 01:14:24;;;;;;;1.55;1.45;;;24.10;39.20;;;;;;942745;149;28403;-73
2022/08/12 01:16:48;;;;;;;1.35;1.25;;;24.00;39.30;;;;;;944080;149;27296;-73
2022/08/12 01:19:14;;;;;;;1.95;1.60;;;23.90;39.40;;;;;;943972;149;27337;-73
2022/08/12 01:21:50;;;;;;;3.30;1.67;;;23.80;39.60;;;;;;943032;149;27469;-73
2022/08/12 01:24:28;;;;;;;1.87;1.52;;;23.60;39.70;;;;;;943458;149;27509;-73
2022/08/12 01:26:55;;;;;;;1.65;1.40;;;23.50;39.80;;;;;;942369;149;28049;-73
2022/08/12 01:29:28;;;;;;;1.82;1.50;;;23.40;39.90;;;;;;943757;149;27396;-74
2022/08/12 01:31:57;;;;;;;1.80;1.70;;;23.30;40.10;;;;;;942504;149;27333;-73
2022/08/12 01:34:23;;;;;;;2.15;1.60;;;23.10;40.20;;;;;;941853;150;27401;-73
2022/08/12 01:36:50;;;;;;;1.70;1.60;;;23.00;40.30;;;;;;943533;150;27453;-73
2022/08/12 01:39:16;;;;;;;3.10;1.55;;;22.90;40.50;;;;;;944012;150;27308;-74
2022/08/12 01:41:44;;;;;;;2.30;2.00;;;22.80;40.60;;;;;;943346;150;27469;-74
2022/08/12 01:44:10;;;;;;;2.98;1.75;;;22.70;40.80;;;;;;946171;149;27367;-73
2022/08/12 01:46:51;;;;;;;1.77;1.67;;;22.60;41.60;;;;;;943039;150;27330;-73
2022/08/12 01:49:44;;;;;;;3.33;1.45;;;22.50;41.10;;;;;;944255;150;27372;-73
2022/08/12 01:52:11;;;;;;;1.30;1.30;;;22.50;41.40;;;;;;943647;149;27352;-72
2022/08/12 01:54:38;;;;;;;1.50;1.40;;;22.40;41.50;;;;;;942222;149;27342;-73
2022/08/12 01:57:17;;;;;;;1.67;1.50;;;22.30;41.60;;;;;;943801;149;27356;-73
2022/08/12 01:59:48;;;;;;;2.87;1.47;;;22.20;41.70;;;;;;945866;149;27428;-73
2022/08/12 02:02:12;;;;;;;2.30;1.95;;;22.10;41.70;;;;;;942538;149;27474;-73
2022/08/12 02:13:59;;;;;;;1.50;1.35;;;21.80;42.20;;;;;;945647;149;27473;-73
2022/08/12 02:16:45;;;;;;;2.15;1.95;;;21.80;42.50;;;;;;949844;149;27352;-74
2022/08/12 02:19:27;;;;;;;2.35;1.92;;;21.70;42.60;;;;;;949334;149;27341;-73
2022/08/12 02:22:27;;;;;;;3.02;1.92;;;21.60;42.90;;;;;;949605;149;27364;-74
2022/08/12 02:25:03;;;;;;;2.37;1.85;;;21.50;43.00;;;;;;948176;149;27440;-73
2022/08/12 02:27:30;;;;;;;2.10;1.60;;;21.50;43.20;;;;;;949498;149;27343;-73
2022/08/12 02:29:57;;;;;;;1.47;1.42;;;21.40;43.30;;;;;;947476;149;27371;-73
2022/08/12 02:32:22;;;;;;;3.37;1.80;;;21.30;43.40;;;;;;951368;149;27444;-74
2022/08/12 02:34:49;;;;;;;1.90;1.80;;;21.30;44.10;;;;;;950661;149;28025;-75
2022/08/12 02:37:16;;;;;;;2.90;1.47;;;21.20;43.90;;;;;;949309;149;27348;-75
2022/08/12 02:39:42;;;;;;;2.50;1.60;;;21.20;44.10;;;;;;949961;149;27339;-75
2022/08/12 02:42:09;;;;;;;2.40;2.20;;;21.10;44.30;;;;;;950224;149;27345;-75
2022/08/12 02:44:35;;;;;;;2.02;1.92;;;21.10;44.50;;;;;;949912;149;27348;-75
2022/08/12 02:47:02;;;;;;;1.62;1.52;;;21.00;44.60;;;;;;948361;149;27339;-75
2022/08/12 02:49:31;;;;;;;1.75;1.60;;;20.90;44.70;;;;;;950632;146;27422;-75
2022/08/12 02:51:58;;;;;;;2.08;1.52;;;20.90;44.90;;;;;;949346;149;27360;-74
2022/08/12 02:54:25;;;;;;;1.70;1.60;;;20.80;45.10;;;;;;951474;149;27361;-75
2022/08/12 02:56:51;;;;;;;1.90;1.80;;;20.80;45.30;;;;;;949311;149;27356;-75
2022/08/12 02:59:18;;;;;;;1.77;1.35;;;20.70;45.40;;;;;;949906;149;27337;-75
2022/08/12 03:01:47;;;;;;;3.10;1.90;;;20.70;45.60;;;;;;947667;149;27274;-75
2022/08/12 03:04:13;;;;;;;2.25;1.70;;;20.70;45.70;;;;;;947966;149;27437;-75
2022/08/12 03:06:42;;;;;;;1.75;1.65;;;20.60;45.70;;;;;;950015;149;27370;-74
2022/08/12 03:09:07;;;;;;;2.85;1.70;;;20.50;45.90;;;;;;949770;148;27305;-74
2022/08/12 03:11:43;;;;;;;2.10;1.90;;;20.50;46.00;;;;;;949383;149;27351;-75
2022/08/12 03:14:09;;;;;;;2.77;1.80;;;20.50;46.20;;;;;;948319;149;27359;-75
2022/08/12 03:16:35;;;;;;;2.20;2.00;;;20.40;46.20;;;;;;948970;149;27403;-75
2022/08/12 03:19:02;;;;;;;3.00;2.05;;;20.40;46.30;;;;;;949216;149;28587;-75
2022/08/12 03:21:28;;;;;;;2.42;1.87;;;20.30;46.60;;;;;;948327;149;27437;-74
2022/08/12 03:23:56;;;;;;;3.65;1.77;;;20.20;46.60;;;;;;950375;149;27262;-74
2022/08/12 03:26:24;;;;;;;1.77;1.67;;;20.20;46.80;;;;;;949411;149;27307;-74
2022/08/12 03:28:52;;;;;;;2.62;1.82;;;20.10;46.90;;;;;;949053;149;27469;-74
2022/08/12 03:31:17;;;;;;;2.72;1.80;;;20.10;47.00;;;;;;949244;149;27404;-75
2022/08/12 03:33:44;;;;;;;1.90;1.80;;;20.00;47.10;;;;;;949685;148;27347;-75
2022/08/12 03:36:10;;;;;;;5.97;1.90;;;19.90;47.30;;;;;;951025;149;27933;-74
2022/08/12 03:38:39;;;;;;;2.45;1.60;;;19.80;47.40;;;;;;950128;149;27500;-74
2022/08/12 04:00:37;;;;;;;3.72;2.42;;;19.30;48.50;;;;;;949587;149;27410;-75
2022/08/12 04:03:50;;;;;;;2.15;2.00;;;19.30;48.70;;;;;;949531;148;27430;-75
2022/08/12 04:05:30;;;;;;;2.02;1.82;;;19.30;49.00;;;;;;947081;149;27361;-75
2022/08/12 04:07:57;;;;;;;2.60;1.90;;;19.30;49.10;;;;;;949279;146;27352;-75
2022/08/12 04:13:13;;;;;;;2.45;2.25;;;19.30;49.80;;;;;;950570;149;27380;-75
2022/08/12 04:13:15;;;;;;;2.72;2.40;;;19.20;49.40;;;;;;947690;149;27368;-75
2022/08/12 04:15:42;;;;;;;1.77;1.67;;;19.30;49.60;;;;;;943995;149;27427;-75
2022/08/12 04:18:07;;;;;;;2.37;2.17;;;19.20;49.50;;;;;;943341;150;27450;-75
2022/08/12 04:20:34;;;;;;;2.50;2.30;;;19.20;49.60;;;;;;942896;149;27754;-75
2022/08/12 04:23:01;;;;;;;2.15;1.95;;;19.20;49.80;;;;;;942668;150;27336;-75
2022/08/12 04:25:27;;;;;;;2.20;2.00;;;19.20;49.90;;;;;;941545;149;27809;-75
2022/08/12 04:27:54;;;;;;;4.05;2.77;;;19.20;49.90;;;;;;943999;150;27427;-75
2022/08/12 04:30:22;;;;;;;5.00;2.00;;;19.10;50.00;;;;;;944173;149;27314;-75
2022/08/12 04:32:47;;;;;;;2.22;2.10;;;19.20;50.20;;;;;;943018;149;27424;-75
2022/08/12 04:35:13;;;;;;;2.75;2.30;;;19.10;50.40;;;;;;942050;149;27337;-75
2022/08/12 04:37:40;;;;;;;2.20;2.10;;;19.10;50.50;;;;;;943885;150;27387;-75
2022/08/12 04:40:08;;;;;;;2.40;2.20;;;19.10;50.60;;;;;;945368;149;27417;-75
2022/08/12 04:42:33;;;;;;;4.30;2.22;;;19.10;50.60;;;;;;943045;150;27337;-75
2022/08/12 04:45:00;;;;;;;2.62;2.12;;;19.10;50.80;;;;;;943522;150;27625;-75
2022/08/12 04:47:26;;;;;;;3.12;2.15;;;19.10;50.90;;;;;;943111;149;27317;-75
2022/08/12 04:49:53;;;;;;;2.30;2.02;;;19.10;51.50;;;;;;944975;149;27353;-75
2022/08/12 04:52:20;;;;;;;2.58;2.37;;;19.10;50.90;;;;;;943979;149;27327;-75
2022/08/12 04:54:46;;;;;;;2.35;2.15;;;19.20;51.00;;;;;;942774;149;27341;-75
2022/08/12 04:57:13;;;;;;;2.25;2.05;;;19.20;51.20;;;;;;942416;149;27419;-75
2022/08/12 04:59:40;;;;;;;3.03;2.07;;;19.20;51.20;;;;;;942441;150;27294;-75
2022/08/12 05:02:06;;;;;;;2.42;2.00;;;19.30;51.30;;;;;;943487;149;27332;-75
2022/08/12 05:04:33;;;;;;;5.05;2.35;;;19.40;51.40;;;;;;943600;150;27479;-75
2022/08/12 05:06:59;;;;;;;2.92;2.37;;;19.50;51.60;;;;;;944100;150;27345;-75
2022/08/12 05:09:26;;;;;;;2.42;2.10;;;19.80;52.10;;;;;;944323;149;27238;-75
2022/08/12 05:11:53;;;;;;;3.27;1.80;;;20.10;52.40;;;;;;942449;149;27323;-75
2022/08/12 05:14:19;;;;;;;3.27;1.90;;;20.60;52.70;;;;;;942134;149;27304;-75
2022/08/12 05:16:46;;;;;;;3.90;1.98;;;21.10;52.70;;;;;;943251;150;27376;-75
2022/08/12 05:19:12;;;;;;;1.90;1.77;;;21.80;52.50;;;;;;944774;147;28039;-75
2022/08/12 05:21:39;;;;;;;4.58;2.10;;;22.40;52.10;;;;;;943834;149;27308;-75
2022/08/12 05:24:05;;;;;;;4.20;1.98;;;23.20;51.40;;;;;;943860;150;27350;-75
2022/08/12 05:26:32;;;;;;;1.90;1.80;;;23.90;50.70;;;;;;943249;150;27447;-75
2022/08/12 05:28:59;;;;;;;4.30;2.10;;;24.60;49.90;;;;;;943196;150;27320;-76
2022/08/12 05:31:25;;;;;;;3.30;1.87;;;25.40;49.30;;;;;;944067;149;27450;-76
2022/08/12 05:33:52;;;;;;;5.42;1.90;;;26.10;48.60;;;;;;944748;149;27341;-76
2022/08/12 05:36:19;;;;;;;1.80;1.70;;;26.90;47.90;;;;;;943688;149;27374;-76
2022/08/12 05:38:57;;;;;;;3.20;1.90;;;27.60;47.10;;;;;;946191;150;27324;-76
2022/08/12 05:41:29;;;;;;;1.77;1.62;;;28.40;46.40;;;;;;942949;149;27377;-76
2022/08/12 05:43:56;;;;;;;2.60;2.30;;;29.20;45.50;;;;;;943826;149;27373;-76
2022/08/12 05:46:22;;;;;;;4.60;2.35;;;30.00;44.70;;;;;;940619;149;27323;-74
2022/08/12 05:48:49;;;;;;;2.37;1.70;;;30.70;44.00;;;;;;944074;149;27334;-74
2022/08/12 05:51:15;;;;;;;3.65;1.82;;;31.30;43.00;;;;;;942471;149;27745;-73
2022/08/12 05:53:42;;;;;;;1.98;1.77;;;31.90;42.20;;;;;;944856;149;27449;-74
2022/08/12 05:56:18;;;;;;;4.17;1.67;;;32.60;41.60;;;;;;942726;150;27388;-74
2022/08/12 05:58:44;;;;;;;2.30;1.80;;;33.30;40.80;;;;;;942048;149;27453;-74
2022/08/12 06:01:11;;;;;;;2.17;1.98;;;33.90;40.00;;;;;;943849;150;27329;-74
2022/08/12 06:03:37;;;;;;;3.87;2.55;;;34.50;39.10;;;;;;945101;149;27254;-74
2022/08/12 06:06:05;;;;;;;2.72;2.30;;;35.10;38.30;;;;;;945037;150;27692;-74
2022/08/12 06:08:30;;;;;;;1.95;1.85;;;35.70;37.50;;;;;;942457;149;26342;-74
2022/08/12 06:10:57;;;;;;;4.22;1.77;;;36.20;36.90;;;;;;943993;150;27274;-74
2022/08/12 06:13:24;;;;;;;3.45;1.98;;;36.80;36.20;;;;;;944328;149;26752;-74
2022/08/12 06:15:50;;;;;;;7.30;2.35;;;37.30;35.70;;;;;;947516;149;26378;-75
2022/08/12 06:18:17;;;;;;;3.17;2.00;;;37.80;35.00;;;;;;949942;149;26223;-74
2022/08/12 06:20:43;;;;;;;1.90;1.70;;;38.30;34.40;;;;;;951176;149;26371;-74
2022/08/12 06:23:10;;;;;;;1.85;1.75;;;38.80;33.80;;;;;;949721;149;26259;-75
2022/08/12 06:25:37;;;;;;;2.05;1.95;;;39.20;33.20;;;;;;950388;149;27416;-74
2022/08/12 06:28:03;;;;;;;1.82;1.72;;;39.70;33.30;;;;;;949285;148;26228;-75
2022/08/12 06:30:34;;;;;;;1.50;1.40;;;40.10;32.10;;;;;;949175;149;26373;-75
2022/08/12 06:32:56;;;;;;;2.72;1.60;;;40.50;31.50;;;;;;949520;148;26369;-75
2022/08/12 06:35:25;;;;;;;4.85;1.20;;;40.90;31.00;;;;;;950602;149;26271;-75
2022/08/12 06:37:49;;;;;;;1.90;1.32;;;41.30;30.30;;;;;;950233;148;26224;-75
2022/08/12 06:42:46;;;;;;;1.45;1.32;;;41.70;30.00;;;;;;950341;149;26248;-75
2022/08/12 06:42:50;;;;;;;2.37;1.40;;;42.00;29.70;;;;;;946240;146;26256;-75
2022/08/12 06:45:15;;;;;;;7.10;1.42;;;42.30;29.40;;;;;;949722;149;26280;-75
2022/08/12 06:47:41;;;;;;;1.30;1.20;;;42.60;28.30;;;;;;950941;149;26310;-75
2022/08/12 06:50:08;;;;;;;2.55;1.20;;;42.90;28.60;;;;;;950691;149;26228;-75
2022/08/12 06:52:35;;;;;;;3.15;1.37;;;43.10;28.30;;;;;;948754;149;26251;-75
2022/08/12 06:55:01;;;;;;;1.87;1.35;;;43.40;27.80;;;;;;950590;149;26248;-76
2022/08/12 06:57:28;;;;;;;1.45;1.30;;;43.70;27.60;;;;;;948352;149;26285;-75
2022/08/12 06:59:54;;;;;;;1.57;1.17;;;43.80;27.10;;;;;;948975;149;26287;-75
2022/08/12 07:02:21;;;;;;;7.05;1.98;;;44.00;26.80;;;;;;950054;149;26203;-75
2022/08/12 07:04:51;;;;;;;1.50;1.40;;;44.10;26.60;;;;;;949046;149;26263;-75
2022/08/12 07:07:17;;;;;;;2.45;1.35;;;44.20;26.50;;;;;;950486;149;26284;-75
2022/08/12 07:09:44;;;;;;;1.27;1.17;;;44.40;26.40;;;;;;948884;146;26337;-76
2022/08/12 07:12:15;;;;;;;3.25;1.47;;;44.50;26.20;;;;;;950866;149;26317;-75
2022/08/12 07:14:37;;;;;;;0.95;0.95;;;44.70;25.90;;;;;;948736;149;26706;-75
2022/08/12 07:17:06;;;;;;;1.80;1.22;;;44.80;25.80;;;;;;945759;149;26352;-75
2022/08/12 07:19:32;;;;;;;1.57;1.30;;;45.00;25.50;;;;;;943520;147;26350;-76
2022/08/12 07:22:05;;;;;;;1.75;1.37;;;45.20;25.30;;;;;;944254;149;26245;-76
2022/08/12 07:24:23;;;;;;;2.92;1.12;;;45.30;24.80;;;;;;944486;150;26268;-76
2022/08/12 07:26:53;;;;;;;2.70;1.30;;;45.40;24.50;;;;;;943355;149;26356;-76
2022/08/12 07:29:17;;;;;;;1.52;1.10;;;45.50;24.50;;;;;;943440;147;26221;-76
2022/08/12 07:31:43;;;;;;;3.75;1.25;;;45.50;24.50;;;;;;944696;149;26313;-76
2022/08/12 07:34:10;;;;;;;1.72;1.32;;;45.50;24.30;;;;;;943328;149;26666;-76
2022/08/12 07:36:36;;;;;;;2.10;1.70;;;45.50;24.10;;;;;;943052;149;26240;-76
2022/08/12 07:39:03;;;;;;;2.25;1.80;;;45.50;23.90;;;;;;945857;150;26322;-75
2022/08/12 07:41:30;;;;;;;1.45;1.35;;;45.50;23.90;;;;;;943357;149;26364;-75
2022/08/12 07:43:59;;;;;;;2.30;1.20;;;45.50;23.80;;;;;;943462;150;26228;-75
2022/08/12 07:46:25;;;;;;;1.40;1.10;;;45.70;23.80;;;;;;943058;149;26356;-76
2022/08/12 07:48:52;;;;;;;1.62;1.25;;;45.80;23.60;;;;;;943866;149;26838;-76
2022/08/12 07:51:18;;;;;;;2.45;1.70;;;45.90;23.40;;;;;;944792;149;26360;-76
2022/08/12 07:53:45;;;;;;;2.27;1.98;;;46.10;23.40;;;;;;944203;150;26338;-76
2022/08/12 07:56:11;;;;;;;1.52;1.42;;;46.20;23.20;;;;;;943406;147;26228;-76
2022/08/12 07:58:38;;;;;;;2.12;1.07;;;46.30;23.00;;;;;;943381;149;26173;-76
2022/08/12 08:01:05;;;;;;;0.80;0.80;;;46.40;22.90;;;;;;943023;150;26269;-76
2022/08/12 08:03:31;;;;;;;1.20;1.10;;;46.50;22.60;;;;;;944078;149;26256;-76
2022/08/12 08:05:58;;;;;;;0.80;0.80;;;46.60;22.50;;;;;;944038;149;26234;-76
2022/08/12 08:08:24;;;;;;;0.78;0.78;;;46.60;22.50;;;;;;943322;149;26272;-76
2022/08/12 08:10:51;;;;;;;2.12;0.98;;;46.70;22.50;;;;;;943902;149;26265;-76
2022/08/12 08:13:19;;;;;;;0.80;0.80;;;46.70;22.80;;;;;;941379;149;26313;-76
2022/08/12 08:15:45;;;;;;;0.95;0.95;;;46.80;22.20;;;;;;941775;150;26293;-76
2022/08/12 08:18:11;;;;;;;3.00;1.10;;;46.80;21.90;;;;;;945016;149;26320;-76
2022/08/12 08:20:38;;;;;;;2.37;1.22;;;46.80;21.80;;;;;;943475;149;26257;-76
2022/08/12 08:23:07;;;;;;;1.20;0.80;;;46.70;21.90;;;;;;943670;150;26210;-77
2022/08/12 08:25:34;;;;;;;1.47;1.10;;;46.70;22.00;;;;;;941388;147;26265;-77
2022/08/12 08:28:00;;;;;;;1.27;1.17;;;46.80;21.90;;;;;;943097;150;26245;-77
2022/08/12 08:30:27;;;;;;;1.47;0.98;;;47.00;21.90;;;;;;943233;149;26346;-76
2022/08/12 08:32:53;;;;;;;0.90;0.80;;;47.10;21.60;;;;;;943020;149;26214;-76
2022/08/12 08:35:21;;;;;;;1.20;1.10;;;47.20;21.50;;;;;;944745;150;26328;-76
2022/08/12 08:37:46;;;;;;;2.65;1.35;;;47.20;21.20;;;;;;943753;150;26730;-76
2022/08/12 08:42:58;;;;;;;0.98;0.95;;;47.40;21.30;;;;;;945842;149;26342;-76
2022/08/12 08:45:25;;;;;;;1.75;1.40;;;47.50;21.00;;;;;;943946;147;26265;-76
2022/08/12 08:47:51;;;;;;;1.60;1.12;;;47.50;20.80;;;;;;943588;150;26388;-76
2022/08/12 08:50:18;;;;;;;1.17;1.07;;;47.40;20.80;;;;;;942568;149;26221;-76
2022/08/12 08:52:44;;;;;;;1.27;1.00;;;47.30;20.30;;;;;;944441;147;26214;-76
2022/08/12 08:55:12;;;;;;;1.22;0.93;;;47.10;20.50;;;;;;942749;150;26273;-76
2022/08/12 08:57:38;;;;;;;1.00;0.90;;;46.80;20.30;;;;;;943487;149;26368;-76
2022/08/12 09:00:04;;;;;;;1.00;1.00;;;46.50;20.50;;;;;;943791;150;26237;-76
2022/08/12 09:02:31;;;;;;;1.45;0.98;;;46.40;20.70;;;;;;943044;149;26245;-76
2022/08/12 09:04:58;;;;;;;1.57;0.80;;;46.30;20.70;;;;;;944483;149;26336;-76
2022/08/12 09:07:24;;;;;;;1.42;0.93;;;46.30;20.90;;;;;;943314;148;26264;-76
2022/08/12 09:09:51;;;;;;;1.05;1.00;;;46.20;20.50;;;;;;944671;150;26804;-76
2022/08/12 09:15:02;;;;;;;1.52;1.00;;;45.90;20.40;;;;;;942915;149;26350;-76
2022/08/12 09:17:29;;;;;;;1.65;0.75;;;45.70;20.20;;;;;;943045;149;28443;-76
2022/08/12 09:19:55;;;;;;;1.30;1.20;;;45.40;20.20;;;;;;948967;149;26321;-76
2022/08/12 09:22:22;;;;;;;0.80;0.80;;;45.20;20.10;;;;;;952197;149;26224;-76
2022/08/12 09:24:48;;;;;;;0.90;0.90;;;44.90;20.20;;;;;;950130;146;26272;-77
2022/08/12 09:27:16;;;;;;;3.62;1.07;;;44.60;20.30;;;;;;950899;149;26360;-76
2022/08/12 09:29:42;;;;;;;2.58;1.05;;;44.40;20.50;;;;;;949475;149;26342;-76
2022/08/12 09:32:08;;;;;;;3.35;1.20;;;44.20;20.60;;;;;;950330;149;26345;-76
2022/08/12 09:34:35;;;;;;;2.33;1.00;;;44.10;20.70;;;;;;950790;149;26248;-76
2022/08/12 09:37:02;;;;;;;1.55;1.10;;;44.00;20.60;;;;;;949141;149;26316;-76
2022/08/12 09:39:28;;;;;;;2.50;1.10;;;43.90;20.70;;;;;;948017;149;26243;-77
2022/08/12 09:47:28;;;;;;;2.08;1.00;;;43.40;20.60;;;;;;950392;149;26252;-76
2022/08/12 09:49:52;;;;;;;1.55;1.10;;;43.20;20.70;;;;;;947845;148;26160;-77
2022/08/12 09:52:18;;;;;;;1.00;0.90;;;43.10;20.60;;;;;;950738;149;26227;-77
2022/08/12 09:54:44;;;;;;;1.55;1.02;;;42.90;20.60;;;;;;948402;149;26264;-76
2022/08/12 09:57:18;;;;;;;0.90;0.90;;;42.70;20.70;;;;;;951244;149;26363;-76
2022/08/12 09:59:38;;;;;;;0.85;0.80;;;42.50;20.60;;;;;;948610;146;26248;-76
2022/08/12 10:02:05;;;;;;;1.00;1.00;;;42.20;20.60;;;;;;948588;148;26404;-76
2022/08/12 10:04:31;;;;;;;1.05;0.95;;;41.80;20.70;;;;;;951286;149;26232;-76
2022/08/12 10:06:57;;;;;;;1.55;1.22;;;41.40;20.80;;;;;;949894;149;27364;-76
2022/08/12 10:09:24;;;;;;;1.02;0.90;;;41.00;21.00;;;;;;950022;146;26286;-76
2022/08/12 10:14:36;;;;;;;1.80;1.10;;;40.20;20.90;;;;;;948450;149;26282;-76
2022/08/12 10:17:02;;;;;;;1.72;1.60;;;39.80;21.10;;;;;;949546;149;26280;-76
2022/08/12 10:19:28;;;;;;;1.00;1.00;;;39.30;21.10;;;;;;949243;149;27405;-76
2022/08/12 10:21:55;;;;;;;1.92;1.10;;;38.90;21.40;;;;;;949725;149;27478;-76
2022/08/12 10:24:22;;;;;;;1.00;1.00;;;38.50;21.50;;;;;;949518;149;28258;-76
2022/08/12 10:29:40;;;;;;;0.80;0.80;;;37.80;21.60;;;;;;949441;149;27336;-76
2022/08/12 10:32:02;;;;;;;3.47;0.78;;;37.40;21.70;;;;;;948402;149;27367;-76
2022/08/12 10:34:29;;;;;;;0.95;0.95;;;37.00;21.90;;;;;;948424;149;27338;-76
2022/08/12 10:36:57;;;;;;;0.82;0.82;;;36.70;22.10;;;;;;949525;149;27470;-76
2022/08/12 10:39:22;;;;;;;1.37;1.00;;;36.40;22.30;;;;;;949596;149;27338;-76
2022/08/12 10:44:35;;;;;;;1.02;0.98;;;35.70;22.60;;;;;;949047;149;27472;-76
2022/08/12 10:47:00;;;;;;;0.90;0.90;;;35.30;22.70;;;;;;949637;149;27376;-76
2022/08/12 10:49:33;;;;;;;2.37;1.20;;;35.00;22.80;;;;;;950598;146;27353;-75
2022/08/12 10:51:56;;;;;;;3.87;1.15;;;34.60;22.90;;;;;;950102;149;27475;-76
2022/08/12 10:54:26;;;;;;;1.12;0.93;;;34.40;23.10;;;;;;950170;146;27458;-76
2022/08/12 10:56:50;;;;;;;2.30;1.07;;;34.10;23.20;;;;;;947203;149;27311;-76
2022/08/12 10:59:16;;;;;;;1.20;0.82;;;33.90;23.60;;;;;;951158;146;27394;-76
2022/08/12 11:01:43;;;;;;;2.55;1.20;;;33.70;23.60;;;;;;950717;146;27326;-76
2022/08/12 11:04:15;;;;;;;1.25;1.00;;;33.50;23.70;;;;;;949336;146;27438;-76
2022/08/12 11:06:47;;;;;;;0.95;0.90;;;33.40;23.90;;;;;;949807;149;27285;-76
2022/08/12 11:09:16;;;;;;;1.17;1.07;;;33.30;24.00;;;;;;949585;146;27401;-76
2022/08/12 11:11:41;;;;;;;1.10;1.00;;;33.10;24.10;;;;;;950068;149;27403;-76
2022/08/12 11:14:07;;;;;;;1.32;1.20;;;33.00;24.30;;;;;;950863;146;27352;-76
2022/08/12 11:16:34;;;;;;;1.70;1.07;;;33.00;24.50;;;;;;951141;147;28193;-76
2022/08/12 11:19:00;;;;;;;1.62;1.05;;;32.90;24.60;;;;;;949230;146;27430;-76
2022/08/12 11:21:27;;;;;;;1.82;1.30;;;32.80;24.70;;;;;;943862;149;27329;-76
2022/08/12 11:23:53;;;;;;;1.10;1.05;;;32.80;24.80;;;;;;944486;147;27326;-76
2022/08/12 11:26:20;;;;;;;1.20;1.10;;;32.70;24.90;;;;;;942840;147;27815;-76
2022/08/12 11:28:46;;;;;;;0.82;0.82;;;32.70;24.90;;;;;;943007;147;27311;-76
2022/08/12 11:31:13;;;;;;;1.00;1.00;;;32.70;25.00;;;;;;943198;147;27309;-76
2022/08/12 11:33:40;;;;;;;3.00;0.93;;;32.70;24.90;;;;;;942781;147;27415;-76
2022/08/12 11:36:06;;;;;;;1.22;1.15;;;32.60;24.80;;;;;;943333;149;27313;-76
2022/08/12 11:38:33;;;;;;;0.95;0.90;;;32.60;24.90;;;;;;942082;147;27346;-76
2022/08/12 11:41:02;;;;;;;1.30;1.10;;;32.50;24.90;;;;;;941355;150;27467;-76
2022/08/12 11:43:26;;;;;;;1.02;0.95;;;32.50;25.00;;;;;;941447;147;28283;-76
2022/08/12 11:45:53;;;;;;;1.72;0.85;;;32.50;25.00;;;;;;941273;149;27444;-76
2022/08/12 11:48:19;;;;;;;2.02;1.40;;;32.40;25.00;;;;;;945442;147;27317;-75
2022/08/12 11:50:46;;;;;;;1.40;1.30;;;32.40;25.20;;;;;;942068;147;27275;-76
2022/08/12 11:53:13;;;;;;;1.15;1.05;;;32.40;25.30;;;;;;943797;149;27442;-76
2022/08/12 11:55:39;;;;;;;1.52;1.02;;;32.40;25.30;;;;;;943824;147;27443;-76
2022/08/12 11:58:06;;;;;;;2.17;1.10;;;32.40;25.30;;;;;;944230;150;28439;-76
2022/08/12 12:00:32;;;;;;;1.10;1.10;;;32.30;25.50;;;;;;941648;148;27335;-76
2022/08/12 12:02:59;;;;;;;1.17;1.02;;;32.30;25.50;;;;;;942612;149;27419;-76
2022/08/12 12:05:25;;;;;;;1.30;1.20;;;32.30;25.60;;;;;;942804;149;27368;-76
2022/08/12 12:07:52;;;;;;;2.62;1.10;;;32.30;25.50;;;;;;943576;149;27331;-76
2022/08/12 12:10:19;;;;;;;2.22;1.10;;;32.30;25.60;;;;;;943251;147;27847;-76
2022/08/12 12:12:45;;;;;;;1.10;1.00;;;32.30;25.60;;;;;;943028;149;27330;-76
2022/08/12 12:15:12;;;;;;;2.12;1.00;;;32.40;25.70;;;;;;943308;149;27349;-76
2022/08/12 12:17:38;;;;;;;0.98;0.90;;;32.40;25.80;;;;;;942550;149;27328;-76
2022/08/12 12:20:11;;;;;;;1.25;1.10;;;32.40;25.70;;;;;;945654;147;27517;-76
2022/08/12 12:22:38;;;;;;;1.10;1.10;;;32.40;25.60;;;;;;948985;146;27352;-75
2022/08/12 12:25:04;;;;;;;1.00;1.00;;;32.40;25.60;;;;;;949178;146;27336;-74
2022/08/12 12:27:51;;;;;;;2.27;1.12;;;32.50;25.60;;;;;;950133;146;27388;-75
2022/08/12 12:30:18;;;;;;;1.77;1.10;;;32.50;25.60;;;;;;950014;146;27401;-74
2022/08/12 12:32:45;;;;;;;0.82;0.78;;;32.50;25.70;;;;;;948654;146;27408;-75
2022/08/12 12:35:11;;;;;;;0.88;0.82;;;32.50;25.70;;;;;;948192;149;27458;-74
2022/08/12 12:37:50;;;;;;;0.98;0.98;;;32.40;25.80;;;;;;949774;149;27298;-75
2022/08/12 12:40:16;;;;;;;0.82;0.82;;;32.40;25.80;;;;;;948064;149;27357;-75
2022/08/12 12:42:43;;;;;;;1.20;1.10;;;32.50;25.80;;;;;;948574;149;27420;-74
2022/08/12 12:45:10;;;;;;;1.52;1.20;;;32.50;25.90;;;;;;949034;146;27366;-75
2022/08/12 12:47:36;;;;;;;1.37;0.95;;;32.50;25.90;;;;;;949149;149;27379;-75
2022/08/12 12:50:03;;;;;;;1.98;1.07;;;32.50;25.90;;;;;;950194;149;27371;-74
2022/08/12 12:52:29;;;;;;;1.22;0.95;;;32.50;25.90;;;;;;949940;149;27478;-74
2022/08/12 12:54:57;;;;;;;0.88;0.88;;;32.60;26.00;;;;;;949825;149;27333;-75
2022/08/12 12:57:24;;;;;;;1.00;1.00;;;32.50;25.80;;;;;;950789;149;27335;-75
2022/08/12 13:00:13;;;;;;;1.62;0.93;;;32.50;25.80;;;;;;950933;148;27446;-75
2022/08/12 13:02:16;;;;;;;1.22;1.17;;;32.60;26.00;;;;;;945904;149;27435;-75
2022/08/12 13:04:42;;;;;;;1.20;1.15;;;32.60;26.00;;;;;;947971;149;27270;-75
2022/08/12 13:07:09;;;;;;;3.55;0.98;;;32.70;26.00;;;;;;947871;149;27328;-75
2022/08/12 13:09:35;;;;;;;1.27;1.17;;;32.70;26.10;;;;;;949314;149;27324;-75
2022/08/12 13:12:02;;;;;;;1.30;1.10;;;32.80;26.00;;;;;;949833;149;27430;-75
2022/08/12 13:14:30;;;;;;;1.20;1.10;;;32.90;26.00;;;;;;951801;149;27795;-75
2022/08/12 13:16:55;;;;;;;1.15;1.02;;;33.00;26.00;;;;;;948990;149;27329;-75
2022/08/12 13:19:22;;;;;;;0.90;0.90;;;33.20;26.10;;;;;;949053;149;27278;-75
2022/08/12 13:24:33;;;;;;;1.40;1.05;;;33.40;25.90;;;;;;951511;149;27407;-75
2022/08/12 13:27:00;;;;;;;1.87;1.42;;;33.60;25.80;;;;;;949171;146;27462;-74
2022/08/12 13:29:32;;;;;;;1.30;1.30;;;33.70;25.70;;;;;;949303;149;27391;-75
2022/08/12 13:31:56;;;;;;;0.93;0.90;;;33.80;25.70;;;;;;947785;149;27321;-75
2022/08/12 13:34:20;;;;;;;1.20;1.10;;;33.80;25.70;;;;;;949290;149;27450;-75
2022/08/12 13:36:46;;;;;;;1.17;1.07;;;33.90;25.70;;;;;;947835;149;27320;-75
2022/08/12 13:39:13;;;;;;;1.35;1.25;;;33.90;25.60;;;;;;950565;146;27473;-74
2022/08/12 13:41:39;;;;;;;6.50;1.10;;;33.90;25.60;;;;;;948397;149;27302;-75
2022/08/12 13:44:06;;;;;;;1.10;1.00;;;33.80;25.50;;;;;;948689;149;27333;-75
2022/08/12 13:46:34;;;;;;;1.98;1.10;;;33.70;25.50;;;;;;950581;149;27322;-74
2022/08/12 13:49:01;;;;;;;1.87;1.20;;;33.60;25.50;;;;;;948195;149;27365;-75
2022/08/12 13:51:26;;;;;;;0.90;0.90;;;33.60;25.70;;;;;;951347;149;27369;-76
2022/08/12 13:53:52;;;;;;;1.02;1.00;;;33.50;25.70;;;;;;951108;149;27983;-76
2022/08/12 13:56:21;;;;;;;2.55;0.85;;;33.40;25.80;;;;;;950338;146;27294;-75
2022/08/12 13:58:48;;;;;;;0.80;0.80;;;33.30;25.90;;;;;;950539;149;27438;-75
2022/08/12 14:01:12;;;;;;;1.22;1.20;;;33.30;26.00;;;;;;951842;149;27296;-75
2022/08/12 14:03:38;;;;;;;1.10;1.00;;;33.20;26.00;;;;;;951208;149;27347;-75
2022/08/12 14:06:05;;;;;;;1.35;1.20;;;33.20;25.90;;;;;;951246;149;27751;-74
2022/08/12 14:08:32;;;;;;;3.83;0.80;;;33.20;26.00;;;;;;949939;149;27333;-75
2022/08/12 14:10:58;;;;;;;2.05;1.30;;;33.20;26.00;;;;;;950835;149;27308;-75
2022/08/12 14:13:28;;;;;;;0.93;0.93;;;33.20;26.00;;;;;;951389;149;27324;-75
2022/08/12 14:15:54;;;;;;;1.05;0.98;;;33.20;26.30;;;;;;950860;149;28140;-75
2022/08/12 14:18:21;;;;;;;1.42;1.10;;;33.20;25.90;;;;;;948795;149;27420;-75
2022/08/12 14:20:57;;;;;;;1.52;0.90;;;33.20;25.60;;;;;;948666;149;27421;-75
2022/08/12 14:23:23;;;;;;;1.00;0.93;;;33.10;26.00;;;;;;942986;150;27408;-75
2022/08/12 14:25:50;;;;;;;1.42;0.88;;;33.10;25.70;;;;;;944838;149;27366;-75
2022/08/12 14:28:15;;;;;;;1.30;1.10;;;33.20;25.80;;;;;;943839;149;27791;-75
2022/08/12 14:30:43;;;;;;;0.93;0.93;;;33.20;26.40;;;;;;946285;148;27590;-75